createdAt,value
2023-04-20T00:00:48.825Z,94907.00
2023-04-20T00:01:48.921Z,94907.00
2023-04-20T00:02:49.100Z,94905.00
2023-04-20T00:03:49.214Z,94903.00
2023-04-20T00:04:49.085Z,94899.00
2023-04-20T00:05:49.850Z,94897.00
2023-04-20T00:06:49.143Z,94889.00
2023-04-20T00:07:49.199Z,94889.00
2023-04-20T00:08:49.283Z,94885.00
2023-04-20T00:09:49.349Z,94885.00
2023-04-20T00:10:49.427Z,94883.00
2023-04-20T00:11:49.450Z,94882.00
2023-04-20T00:12:49.496Z,94880.00
2023-04-20T00:13:49.548Z,94878.00
2023-04-20T00:14:49.591Z,94878.00
2023-04-20T00:15:49.662Z,94878.00
2023-04-20T00:16:49.773Z,94878.00
2023-04-20T00:17:49.783Z,94878.00
2023-04-20T00:18:49.819Z,94876.00
2023-04-20T00:19:49.866Z,94874.00
2023-04-20T00:20:49.928Z,94874.00
2023-04-20T00:21:49.992Z,94872.00
2023-04-20T00:22:50.002Z,94870.00
2023-04-20T00:23:50.069Z,94866.00
2023-04-20T00:24:50.108Z,94864.00
2023-04-20T00:25:50.151Z,94864.00
2023-04-20T00:26:50.213Z,94864.00
2023-04-20T00:27:50.240Z,94862.00
2023-04-20T00:28:50.276Z,94862.00
2023-04-20T00:29:50.317Z,94862.00
2023-04-20T00:30:50.472Z,94858.00
2023-04-20T00:31:50.417Z,94860.00
2023-04-20T00:32:50.462Z,94856.00
2023-04-20T00:33:50.486Z,94856.00
2023-04-20T00:34:50.500Z,94858.00
2023-04-20T00:35:50.516Z,94858.00
2023-04-20T00:36:50.546Z,94858.00
2023-04-20T00:37:50.595Z,94858.00
2023-04-20T00:38:50.645Z,94854.00
2023-04-20T00:39:50.701Z,94852.00
2023-04-20T00:40:50.742Z,94852.00
2023-04-20T00:41:50.793Z,94850.00
2023-04-20T00:42:50.845Z,94850.00
2023-04-20T00:43:50.852Z,94850.00
2023-04-20T00:44:50.930Z,94848.00
2023-04-20T00:45:50.991Z,94844.00
2023-04-20T00:46:50.990Z,94846.00
2023-04-20T00:47:51.076Z,94842.00
2023-04-20T00:48:51.061Z,94842.00
2023-04-20T00:49:51.112Z,94840.00
2023-04-20T00:50:51.158Z,94842.00
2023-04-20T00:51:51.221Z,94836.00
2023-04-20T00:52:51.263Z,94836.00
2023-04-20T00:53:51.324Z,94836.00
2023-04-20T00:54:51.366Z,94836.00
2023-04-20T00:55:51.401Z,94831.00
2023-04-20T00:56:51.407Z,94829.00
2023-04-20T00:57:51.444Z,94829.00
2023-04-20T00:58:51.501Z,94827.00
2023-04-20T00:59:52.363Z,94825.00
2023-04-20T01:00:51.539Z,94823.00
2023-04-20T01:01:51.647Z,94823.00
2023-04-20T01:02:52.523Z,94821.00
2023-04-20T01:03:52.247Z,94819.00
2023-04-20T01:04:51.745Z,94815.00
2023-04-20T01:05:52.142Z,94819.00
2023-04-20T01:06:52.197Z,94815.00
2023-04-20T01:07:52.199Z,94817.00
2023-04-20T01:08:52.195Z,94815.00
2023-04-20T01:09:52.193Z,94815.00
2023-04-20T01:10:52.182Z,94813.00
2023-04-20T01:11:52.203Z,94813.00
2023-04-20T01:12:52.193Z,94813.00
2023-04-20T01:13:52.204Z,94811.00
2023-04-20T01:14:52.225Z,94811.00
2023-04-20T01:15:52.219Z,94809.00
2023-04-20T01:16:52.214Z,94807.00
2023-04-20T01:17:52.384Z,94807.00
2023-04-20T01:18:52.310Z,94805.00
2023-04-20T01:19:52.340Z,94805.00
2023-04-20T01:20:52.385Z,94803.00
2023-04-20T01:21:52.426Z,94803.00
2023-04-20T01:22:52.473Z,94799.00
2023-04-20T01:23:52.526Z,94797.00
2023-04-20T01:24:53.365Z,94797.00
2023-04-20T01:25:52.632Z,94797.00
2023-04-20T01:26:52.671Z,94793.00
2023-04-20T01:27:52.719Z,94793.00
2023-04-20T01:28:52.810Z,94793.00
2023-04-20T01:29:53.182Z,94795.00
2023-04-20T01:30:53.204Z,94795.00
2023-04-20T01:31:53.189Z,94793.00
2023-04-20T01:32:53.208Z,94789.00
2023-04-20T01:33:53.374Z,94795.00
2023-04-20T01:34:53.203Z,94793.00
2023-04-20T01:35:53.190Z,94793.00
2023-04-20T01:36:53.196Z,94791.00
2023-04-20T01:37:53.191Z,94795.00
2023-04-20T01:38:53.182Z,94789.00
2023-04-20T01:39:53.278Z,94791.00
2023-04-20T01:40:53.254Z,94788.00
2023-04-20T01:41:53.270Z,94786.00
2023-04-20T01:42:53.289Z,94782.00
2023-04-20T01:43:53.304Z,94778.00
2023-04-20T01:44:53.322Z,94780.00
2023-04-20T01:45:53.362Z,94782.00
2023-04-20T01:46:54.495Z,94778.00
2023-04-20T01:47:53.547Z,94780.00
2023-04-20T01:48:53.513Z,94778.00
2023-04-20T01:49:53.561Z,94778.00
2023-04-20T01:50:53.604Z,94776.00
2023-04-20T01:51:53.625Z,94778.00
2023-04-20T01:52:53.671Z,94774.00
2023-04-20T01:53:53.715Z,94774.00
2023-04-20T01:54:53.728Z,94774.00
2023-04-20T01:55:53.766Z,94776.00
2023-04-20T01:56:53.796Z,94776.00
2023-04-20T01:57:53.850Z,94774.00
2023-04-20T01:58:54.886Z,94772.00
2023-04-20T01:59:54.384Z,94772.00
2023-04-20T02:00:54.018Z,94770.00
2023-04-20T02:01:54.127Z,94770.00
2023-04-20T02:02:54.297Z,94770.00
2023-04-20T02:03:54.414Z,94762.00
2023-04-20T02:04:54.201Z,94762.00
2023-04-20T02:05:54.261Z,94762.00
2023-04-20T02:06:54.317Z,94762.00
2023-04-20T02:07:54.384Z,94764.00
2023-04-20T02:08:54.418Z,94764.00
2023-04-20T02:09:54.457Z,94760.00
2023-04-20T02:10:54.513Z,94762.00
2023-04-20T02:11:54.542Z,94760.00
2023-04-20T02:12:55.389Z,94758.00
2023-04-20T02:13:54.633Z,94758.00
2023-04-20T02:14:55.384Z,94758.00
2023-04-20T02:15:54.709Z,94758.00
2023-04-20T02:16:54.795Z,94758.00
2023-04-20T02:17:54.801Z,94760.00
2023-04-20T02:18:54.815Z,94760.00
2023-04-20T02:19:55.389Z,94760.00
2023-04-20T02:20:54.896Z,94764.00
2023-04-20T02:21:54.850Z,94762.00
2023-04-20T02:22:54.879Z,94760.00
2023-04-20T02:23:54.942Z,94758.00
2023-04-20T02:24:54.950Z,94760.00
2023-04-20T02:25:54.982Z,94758.00
2023-04-20T02:26:55.011Z,94760.00
2023-04-20T02:27:58.031Z,94764.00
2023-04-20T02:28:55.398Z,94762.00
2023-04-20T02:29:55.102Z,94766.00
2023-04-20T02:30:55.429Z,94764.00
2023-04-20T02:31:55.029Z,94768.00
2023-04-20T02:32:55.069Z,94768.00
2023-04-20T02:33:55.017Z,94766.00
2023-04-20T02:34:55.029Z,94768.00
2023-04-20T02:35:54.995Z,94768.00
2023-04-20T02:36:54.996Z,94768.00
2023-04-20T02:37:54.995Z,94764.00
2023-04-20T02:38:55.897Z,94764.00
2023-04-20T02:39:54.984Z,94756.00
2023-04-20T02:40:54.970Z,94752.00
2023-04-20T02:41:54.979Z,94748.00
2023-04-20T02:42:54.950Z,94748.00
2023-04-20T02:43:55.401Z,94746.00
2023-04-20T02:44:58.021Z,94746.00
2023-04-20T02:45:58.104Z,94746.00
2023-04-20T02:46:55.104Z,94742.00
2023-04-20T02:47:55.062Z,94742.00
2023-04-20T02:48:55.028Z,94739.00
2023-04-20T02:49:55.923Z,94741.00
2023-04-20T02:50:55.023Z,94741.00
2023-04-20T02:51:54.986Z,94739.00
2023-04-20T02:52:54.987Z,94739.00
2023-04-20T02:55:12.586Z,94737.00
2023-04-20T02:56:13.580Z,94737.00
2023-04-20T02:57:13.581Z,94737.00
2023-04-20T02:58:13.574Z,94735.00
2023-04-20T02:59:13.571Z,94733.00
2023-04-20T03:00:13.583Z,94733.00
2023-04-20T03:01:13.564Z,94735.00
2023-04-20T03:02:13.677Z,94733.00
2023-04-20T03:03:13.725Z,94731.00
2023-04-20T03:04:13.846Z,94725.00
2023-04-20T03:05:13.515Z,94727.00
2023-04-20T03:06:13.537Z,94727.00
2023-04-20T03:07:15.359Z,94725.00
2023-04-20T03:08:13.499Z,94723.00
2023-04-20T03:09:13.523Z,94721.00
2023-04-20T03:10:13.484Z,94723.00
2023-04-20T03:11:13.477Z,94721.00
2023-04-20T03:12:13.467Z,94723.00
2023-04-20T03:13:13.456Z,94723.00
2023-04-20T03:14:13.454Z,94719.00
2023-04-20T03:15:13.442Z,94721.00
2023-04-20T03:16:13.475Z,94719.00
2023-04-20T03:17:13.428Z,94717.00
2023-04-20T03:18:13.437Z,94717.00
2023-04-20T03:19:13.415Z,94719.00
2023-04-20T03:20:13.408Z,94719.00
2023-04-20T03:21:13.403Z,94713.00
2023-04-20T03:22:13.419Z,94713.00
2023-04-20T03:23:13.382Z,94711.00
2023-04-20T03:24:13.375Z,94709.00
2023-04-20T03:25:13.359Z,94705.00
2023-04-20T03:26:13.359Z,94709.00
2023-04-20T03:27:13.353Z,94709.00
2023-04-20T03:28:13.332Z,94707.00
2023-04-20T03:29:13.333Z,94705.00
2023-04-20T03:30:13.318Z,94701.00
2023-04-20T03:31:13.308Z,94703.00
2023-04-20T03:32:13.472Z,94705.00
2023-04-20T03:33:13.368Z,94703.00
2023-04-20T03:34:13.293Z,94703.00
2023-04-20T03:35:13.282Z,94703.00
2023-04-20T03:36:13.291Z,94701.00
2023-04-20T03:37:13.260Z,94699.00
2023-04-20T03:38:13.288Z,94697.00
2023-04-20T03:39:13.249Z,94697.00
2023-04-20T03:40:13.251Z,94703.00
2023-04-20T03:41:13.241Z,94705.00
2023-04-20T03:42:13.225Z,94701.00
2023-04-20T03:43:13.217Z,94703.00
2023-04-20T03:44:13.215Z,94699.00
2023-04-20T03:45:13.220Z,94697.00
2023-04-20T03:46:13.253Z,94694.00
2023-04-20T03:47:13.230Z,94694.00
2023-04-20T03:48:13.296Z,94694.00
2023-04-20T03:49:20.274Z,94694.00
2023-04-20T03:50:13.288Z,94694.00
2023-04-20T03:51:13.275Z,94692.00
2023-04-20T03:52:13.267Z,94692.00
2023-04-20T03:53:13.279Z,94690.00
2023-04-20T03:54:13.280Z,94690.00
2023-04-20T03:55:13.248Z,94690.00
2023-04-20T03:56:13.237Z,94688.00
2023-04-20T03:57:13.232Z,94692.00
2023-04-20T03:58:13.220Z,94692.00
2023-04-20T03:59:13.219Z,94692.00
2023-04-20T04:00:13.258Z,94690.00
2023-04-20T04:01:13.411Z,94690.00
2023-04-20T04:02:13.437Z,94688.00
2023-04-20T04:03:13.626Z,94688.00
2023-04-20T04:04:14.012Z,94690.00
2023-04-20T04:05:13.432Z,94690.00
2023-04-20T04:06:13.512Z,94690.00
2023-04-20T04:08:31.075Z,94692.00
2023-04-20T04:09:32.096Z,94692.00
2023-04-20T04:10:32.098Z,94695.00
2023-04-20T04:11:32.055Z,94694.00
2023-04-20T04:12:32.049Z,94695.00
2023-04-20T04:13:34.477Z,94690.00
2023-04-20T04:14:32.037Z,94694.00
2023-04-20T04:15:32.070Z,94694.00
2023-04-20T04:16:32.040Z,94695.00
2023-04-20T04:17:32.039Z,94694.00
2023-04-20T04:18:32.008Z,94694.00
2023-04-20T04:19:31.994Z,94694.00
2023-04-20T04:20:32.075Z,94695.00
2023-04-20T04:21:32.744Z,94695.00
2023-04-20T04:22:31.985Z,94694.00
2023-04-20T04:23:31.998Z,94694.00
2023-04-20T04:24:31.985Z,94694.00
2023-04-20T04:25:31.980Z,94692.00
2023-04-20T04:26:31.949Z,94694.00
2023-04-20T04:27:31.935Z,94692.00
2023-04-20T04:28:31.974Z,94692.00
2023-04-20T04:29:31.922Z,94694.00
2023-04-20T04:30:31.922Z,94692.00
2023-04-20T04:31:31.914Z,94690.00
2023-04-20T04:32:31.915Z,94688.00
2023-04-20T04:33:31.912Z,94688.00
2023-04-20T04:34:31.883Z,94686.00
2023-04-20T04:35:31.931Z,94688.00
2023-04-20T04:36:32.759Z,94684.00
2023-04-20T04:37:31.864Z,94684.00
2023-04-20T04:38:31.926Z,94682.00
2023-04-20T04:39:31.844Z,94680.00
2023-04-20T04:40:31.844Z,94678.00
2023-04-20T04:41:31.878Z,94678.00
2023-04-20T04:42:31.831Z,94678.00
2023-04-20T04:43:32.298Z,94680.00
2023-04-20T04:44:31.820Z,94678.00
2023-04-20T04:45:31.799Z,94680.00
2023-04-20T04:46:31.835Z,94682.00
2023-04-20T04:47:31.839Z,94682.00
2023-04-20T04:48:31.884Z,94682.00
2023-04-20T04:49:31.926Z,94680.00
2023-04-20T04:50:31.936Z,94678.00
2023-04-20T04:51:31.966Z,94676.00
2023-04-20T04:52:31.965Z,94674.00
2023-04-20T04:53:31.987Z,94674.00
2023-04-20T04:54:32.292Z,94674.00
2023-04-20T04:55:31.982Z,94672.00
2023-04-20T04:56:31.992Z,94670.00
2023-04-20T04:57:32.784Z,94672.00
2023-04-20T04:58:32.033Z,94674.00
2023-04-20T04:59:32.034Z,94672.00
2023-04-20T05:00:32.049Z,94672.00
2023-04-20T05:01:32.849Z,94670.00
2023-04-20T05:02:32.367Z,94668.00
2023-04-20T05:03:32.245Z,94668.00
2023-04-20T05:04:32.228Z,94666.00
2023-04-20T05:05:32.129Z,94668.00
2023-04-20T05:06:33.106Z,94666.00
2023-04-20T05:07:32.129Z,94664.00
2023-04-20T05:08:32.316Z,94664.00
2023-04-20T05:09:32.138Z,94664.00
2023-04-20T05:10:32.168Z,94662.00
2023-04-20T05:11:32.182Z,94664.00
2023-04-20T05:12:46.936Z,94664.00
2023-04-20T05:13:50.108Z,94668.00
2023-04-20T05:14:51.473Z,94670.00
2023-04-20T05:15:51.128Z,94670.00
2023-04-20T05:16:51.101Z,94672.00
2023-04-20T05:17:51.181Z,94672.00
2023-04-20T05:18:51.468Z,94676.00
2023-04-20T05:19:53.471Z,94676.00
2023-04-20T05:20:51.109Z,94676.00
2023-04-20T05:21:51.108Z,94676.00
2023-04-20T05:22:51.105Z,94676.00
2023-04-20T05:23:51.469Z,94676.00
2023-04-20T05:24:51.108Z,94674.00
2023-04-20T05:25:51.065Z,94674.00
2023-04-20T05:26:51.064Z,94676.00
2023-04-20T05:27:50.840Z,94678.00
2023-04-20T05:28:50.696Z,94680.00
2023-04-20T05:29:50.677Z,94678.00
2023-04-20T05:30:50.674Z,94680.00
2023-04-20T05:31:50.706Z,94678.00
2023-04-20T05:32:52.296Z,94680.00
2023-04-20T05:33:51.469Z,94678.00
2023-04-20T05:34:50.637Z,94684.00
2023-04-20T05:35:51.122Z,94682.00
2023-04-20T05:36:50.617Z,94682.00
2023-04-20T05:37:50.618Z,94682.00
2023-04-20T05:38:51.135Z,94682.00
2023-04-20T05:39:50.598Z,94676.00
2023-04-20T05:40:50.773Z,94676.00
2023-04-20T05:41:50.972Z,94676.00
2023-04-20T05:42:51.473Z,94680.00
2023-04-20T05:43:50.669Z,94682.00
2023-04-20T05:44:50.556Z,94686.00
2023-04-20T05:45:50.558Z,94682.00
2023-04-20T05:46:50.990Z,94682.00
2023-04-20T05:47:50.568Z,94678.00
2023-04-20T05:48:50.987Z,94676.00
2023-04-20T05:49:50.636Z,94676.00
2023-04-20T05:50:50.694Z,94674.00
2023-04-20T05:51:50.710Z,94672.00
2023-04-20T05:52:50.743Z,94674.00
2023-04-20T05:53:51.024Z,94670.00
2023-04-20T05:54:50.760Z,94672.00
2023-04-20T05:55:53.963Z,94674.00
2023-04-20T05:56:51.764Z,94672.00
2023-04-20T05:57:51.848Z,94676.00
2023-04-20T05:58:51.019Z,94674.00
2023-04-20T05:59:50.772Z,94674.00
2023-04-20T06:00:50.743Z,94672.00
2023-04-20T06:01:50.775Z,94672.00
2023-04-20T06:02:50.918Z,94674.00
2023-04-20T06:03:54.466Z,94672.00
2023-04-20T06:04:50.929Z,94672.00
2023-04-20T06:05:52.035Z,94670.00
2023-04-20T06:06:50.807Z,94670.00
2023-04-20T06:07:50.962Z,94668.00
2023-04-20T06:08:51.026Z,94668.00
2023-04-20T06:09:50.922Z,94670.00
2023-04-20T06:10:50.916Z,94668.00
2023-04-20T06:11:50.980Z,94666.00
2023-04-20T06:12:51.019Z,94666.00
2023-04-20T06:13:51.524Z,94666.00
2023-04-20T06:14:51.129Z,94662.00
2023-04-20T06:15:51.618Z,94660.00
2023-04-20T06:16:51.246Z,94664.00
2023-04-20T06:17:51.329Z,94664.00
2023-04-20T06:18:51.540Z,94664.00
2023-04-20T06:19:51.430Z,94666.00
2023-04-20T06:20:51.478Z,94664.00
2023-04-20T06:21:51.546Z,94664.00
2023-04-20T06:22:51.592Z,94666.00
2023-04-20T06:23:53.531Z,94662.00
2023-04-20T06:24:52.521Z,94662.00
2023-04-20T06:25:51.628Z,94666.00
2023-04-20T06:26:51.646Z,94662.00
2023-04-20T06:27:53.001Z,94664.00
2023-04-20T06:28:51.999Z,94660.00
2023-04-20T06:29:51.814Z,94662.00
2023-04-20T06:30:51.884Z,94660.00
2023-04-20T06:31:52.033Z,94664.00
2023-04-20T06:32:55.210Z,94660.00
2023-04-20T06:33:52.077Z,94656.00
2023-04-20T06:34:51.960Z,94656.00
2023-04-20T06:35:51.973Z,94658.00
2023-04-20T06:36:52.025Z,94658.00
2023-04-20T06:37:51.956Z,94658.00
2023-04-20T06:38:51.918Z,94660.00
2023-04-20T06:39:51.995Z,94660.00
2023-04-20T06:40:52.004Z,94658.00
2023-04-20T06:41:52.075Z,94656.00
2023-04-20T06:42:55.517Z,94662.00
2023-04-20T06:43:52.049Z,94654.00
2023-04-20T06:44:51.909Z,94650.00
2023-04-20T06:45:51.939Z,94654.00
2023-04-20T06:46:52.547Z,94652.00
2023-04-20T06:47:51.991Z,94648.00
2023-04-20T06:48:53.037Z,94650.00
2023-04-20T06:49:52.294Z,94646.00
2023-04-20T06:50:51.857Z,94644.00
2023-04-20T06:52:55.055Z,94644.00
2023-04-20T06:53:53.093Z,94646.00
2023-04-20T06:55:52.866Z,94644.00
2023-04-20T06:56:52.523Z,94642.00
2023-04-20T06:57:52.762Z,94642.00
2023-04-20T06:58:52.298Z,94646.00
2023-04-20T06:59:52.615Z,94642.00
2023-04-20T07:00:51.767Z,94646.00
2023-04-20T07:01:52.013Z,94644.00
2023-04-20T07:02:51.847Z,94648.00
2023-04-20T07:03:52.249Z,94640.00
2023-04-20T07:04:51.934Z,94642.00
2023-04-20T07:05:51.896Z,94629.00
2023-04-20T07:06:53.985Z,94623.00
2023-04-20T07:07:51.943Z,94625.00
2023-04-20T07:08:52.519Z,94623.00
2023-04-20T07:09:51.942Z,94627.00
2023-04-20T07:10:51.953Z,94625.00
2023-04-20T07:11:52.108Z,94625.00
2023-04-20T07:12:51.956Z,94627.00
2023-04-20T07:13:52.113Z,94623.00
2023-04-20T07:14:51.941Z,94625.00
2023-04-20T07:15:52.064Z,94623.00
2023-04-20T07:16:52.235Z,94623.00
2023-04-20T07:17:51.900Z,94629.00
2023-04-20T07:18:52.049Z,94625.00
2023-04-20T07:19:52.177Z,94627.00
2023-04-20T07:20:52.516Z,94627.00
2023-04-20T07:21:51.877Z,94625.00
2023-04-20T07:22:51.875Z,94625.00
2023-04-20T07:23:52.119Z,94627.00
2023-04-20T07:24:52.007Z,94625.00
2023-04-20T07:25:53.220Z,94625.00
2023-04-20T07:26:52.568Z,94627.00
2023-04-20T07:27:52.199Z,94627.00
2023-04-20T07:28:52.243Z,94625.00
2023-04-20T07:29:52.279Z,94627.00
2023-04-20T07:30:52.396Z,94627.00
2023-04-20T07:31:52.598Z,94629.00
2023-04-20T07:32:52.528Z,94629.00
2023-04-20T07:33:54.635Z,94627.00
2023-04-20T07:34:52.543Z,94625.00
2023-04-20T07:35:52.538Z,94623.00
2023-04-20T07:36:52.467Z,94627.00
2023-04-20T07:37:52.468Z,94629.00
2023-04-20T07:38:52.534Z,94629.00
2023-04-20T07:39:52.462Z,94629.00
2023-04-20T07:40:52.483Z,94627.00
2023-04-20T07:41:52.463Z,94627.00
2023-04-20T07:42:52.545Z,94629.00
2023-04-20T07:43:53.447Z,94629.00
2023-04-20T07:44:52.428Z,94625.00
2023-04-20T07:45:52.428Z,94621.00
2023-04-20T07:46:52.546Z,94621.00
2023-04-20T07:47:53.558Z,94617.00
2023-04-20T07:48:52.449Z,94615.00
2023-04-20T07:49:52.472Z,94615.00
2023-04-20T07:50:52.554Z,94621.00
2023-04-20T07:51:52.630Z,94621.00
2023-04-20T07:52:53.541Z,94617.00
2023-04-20T07:53:53.239Z,94617.00
2023-04-20T07:54:52.765Z,94615.00
2023-04-20T07:55:54.557Z,94609.00
2023-04-20T07:56:53.228Z,94611.00
2023-04-20T07:57:52.882Z,94613.00
2023-04-20T07:58:53.236Z,94611.00
2023-04-20T07:59:52.765Z,94609.00
2023-04-20T08:00:53.215Z,94609.00
2023-04-20T08:01:53.879Z,94609.00
2023-04-20T08:02:53.684Z,94611.00
2023-04-20T08:03:53.348Z,94609.00
2023-04-20T08:04:52.975Z,94613.00
2023-04-20T08:05:53.314Z,94615.00
2023-04-20T08:06:52.759Z,94607.00
2023-04-20T08:07:53.266Z,94613.00
2023-04-20T08:08:53.207Z,94613.00
2023-04-20T08:09:53.209Z,94611.00
2023-04-20T08:10:53.213Z,94613.00
2023-04-20T08:11:53.539Z,94607.00
2023-04-20T08:12:53.210Z,94611.00
2023-04-20T08:13:55.740Z,94613.00
2023-04-20T08:14:53.216Z,94611.00
2023-04-20T08:15:53.243Z,94611.00
2023-04-20T08:16:53.223Z,94609.00
2023-04-20T08:17:53.221Z,94609.00
2023-04-20T08:18:53.539Z,94611.00
2023-04-20T08:19:53.220Z,94611.00
2023-04-20T08:20:53.213Z,94611.00
2023-04-20T08:21:53.241Z,94609.00
2023-04-20T08:22:53.270Z,94609.00
2023-04-20T08:23:53.576Z,94607.00
2023-04-20T08:24:53.219Z,94607.00
2023-04-20T08:25:53.225Z,94609.00
2023-04-20T08:26:53.231Z,94609.00
2023-04-20T08:27:53.225Z,94611.00
2023-04-20T08:28:53.546Z,94609.00
2023-04-20T08:29:53.219Z,94609.00
2023-04-20T08:30:53.218Z,94607.00
2023-04-20T08:31:54.462Z,94605.00
2023-04-20T08:32:53.501Z,94605.00
2023-04-20T08:33:53.570Z,94601.00
2023-04-20T08:34:53.217Z,94601.00
2023-04-20T08:35:53.246Z,94603.00
2023-04-20T08:36:53.289Z,94599.00
2023-04-20T08:37:53.322Z,94603.00
2023-04-20T08:38:54.243Z,94599.00
2023-04-20T08:39:53.588Z,94599.00
2023-04-20T08:40:53.460Z,94597.00
2023-04-20T08:41:53.494Z,94597.00
2023-04-20T08:42:55.046Z,94597.00
2023-04-20T08:44:01.657Z,94597.00
2023-04-20T08:44:53.591Z,94597.00
2023-04-20T08:45:53.575Z,94597.00
2023-04-20T08:46:54.573Z,94599.00
2023-04-20T08:47:54.097Z,94597.00
2023-04-20T08:48:53.557Z,94599.00
2023-04-20T08:49:53.547Z,94597.00
2023-04-20T08:50:53.636Z,94594.00
2023-04-20T08:51:53.924Z,94594.00
2023-04-20T08:52:54.241Z,94594.00
2023-04-20T08:53:53.575Z,94592.00
2023-04-20T08:54:57.278Z,94592.00
2023-04-20T08:55:53.537Z,94594.00
2023-04-20T08:56:53.500Z,94594.00
2023-04-20T08:57:53.516Z,94595.00
2023-04-20T08:58:54.271Z,94595.00
2023-04-20T08:59:54.253Z,94594.00
2023-04-20T09:00:53.634Z,94594.00
2023-04-20T09:01:53.689Z,94592.00
2023-04-20T09:02:53.812Z,94588.00
2023-04-20T09:03:53.857Z,94592.00
2023-04-20T09:04:54.444Z,94590.00
2023-04-20T09:05:53.805Z,94590.00
2023-04-20T09:06:54.208Z,94592.00
2023-04-20T09:07:54.263Z,94594.00
2023-04-20T09:08:54.242Z,94597.00
2023-04-20T09:09:54.549Z,94594.00
2023-04-20T09:10:53.978Z,94595.00
2023-04-20T09:11:54.714Z,94597.00
2023-04-20T09:12:54.250Z,94597.00
2023-04-20T09:13:54.276Z,94601.00
2023-04-20T09:14:54.555Z,94601.00
2023-04-20T09:15:54.263Z,94599.00
2023-04-20T09:16:54.329Z,94601.00
2023-04-20T09:17:57.120Z,94599.00
2023-04-20T09:18:54.288Z,94595.00
2023-04-20T09:19:54.558Z,94595.00
2023-04-20T09:20:54.247Z,94594.00
2023-04-20T09:21:54.572Z,94592.00
2023-04-20T09:22:54.221Z,94592.00
2023-04-20T09:23:54.237Z,94588.00
2023-04-20T09:24:54.561Z,94588.00
2023-04-20T09:25:54.265Z,94586.00
2023-04-20T09:26:54.187Z,94586.00
2023-04-20T09:27:54.242Z,94582.00
2023-04-20T09:28:54.177Z,94580.00
2023-04-20T09:29:54.559Z,94578.00
2023-04-20T09:30:54.259Z,94574.00
2023-04-20T09:31:54.207Z,94572.00
2023-04-20T09:32:54.220Z,94574.00
2023-04-20T09:33:54.142Z,94568.00
2023-04-20T09:34:54.559Z,94570.00
2023-04-20T09:35:54.122Z,94574.00
2023-04-20T09:36:54.131Z,94574.00
2023-04-20T09:37:54.254Z,94576.00
2023-04-20T09:38:54.569Z,94574.00
2023-04-20T09:39:54.651Z,94568.00
2023-04-20T09:40:54.116Z,94568.00
2023-04-20T09:41:55.065Z,94568.00
2023-04-20T09:42:54.104Z,94570.00
2023-04-20T09:43:54.202Z,94566.00
2023-04-20T09:44:55.084Z,94564.00
2023-04-20T09:45:59.715Z,94564.00
2023-04-20T09:46:54.067Z,94564.00
2023-04-20T09:47:54.614Z,94562.00
2023-04-20T09:48:54.059Z,94566.00
2023-04-20T09:49:54.031Z,94560.00
2023-04-20T09:51:05.667Z,94560.00
2023-04-20T09:51:56.569Z,94554.00
2023-04-20T09:52:54.101Z,94552.00
2023-04-20T09:53:54.036Z,94552.00
2023-04-20T09:54:54.097Z,94550.00
2023-04-20T09:55:54.044Z,94552.00
2023-04-20T09:56:54.002Z,94550.00
2023-04-20T09:57:54.008Z,94550.00
2023-04-20T09:58:53.997Z,94550.00
2023-04-20T09:59:54.000Z,94547.00
2023-04-20T10:00:53.988Z,94552.00
2023-04-20T10:01:53.955Z,94550.00
2023-04-20T10:02:54.051Z,94552.00
2023-04-20T10:03:54.236Z,94550.00
2023-04-20T10:04:54.079Z,94548.00
2023-04-20T10:05:53.936Z,94550.00
2023-04-20T10:06:54.078Z,94547.00
2023-04-20T10:07:54.581Z,94541.00
2023-04-20T10:08:56.570Z,94543.00
2023-04-20T10:09:54.088Z,94543.00
2023-04-20T10:10:53.891Z,94537.00
2023-04-20T10:11:55.669Z,94539.00
2023-04-20T10:12:53.879Z,94537.00
2023-04-20T10:13:53.888Z,94535.00
2023-04-20T10:14:54.583Z,94535.00
2023-04-20T10:15:54.113Z,94537.00
2023-04-20T10:16:53.928Z,94539.00
2023-04-20T10:17:54.007Z,94541.00
2023-04-20T10:18:54.057Z,94539.00
2023-04-20T10:19:54.087Z,94537.00
2023-04-20T10:20:54.572Z,94537.00
2023-04-20T10:21:53.829Z,94535.00
2023-04-20T10:22:53.820Z,94533.00
2023-04-20T10:23:53.857Z,94529.00
2023-04-20T10:24:54.092Z,94529.00
2023-04-20T10:25:53.791Z,94527.00
2023-04-20T10:26:53.779Z,94529.00
2023-04-20T10:27:53.784Z,94527.00
2023-04-20T10:28:53.769Z,94523.00
2023-04-20T10:29:54.086Z,94523.00
2023-04-20T10:30:53.889Z,94527.00
2023-04-20T10:31:54.307Z,94525.00
2023-04-20T10:32:53.793Z,94527.00
2023-04-20T10:33:53.828Z,94525.00
2023-04-20T10:34:53.861Z,94521.00
2023-04-20T10:35:53.900Z,94521.00
2023-04-20T10:36:54.100Z,94519.00
2023-04-20T10:37:53.975Z,94517.00
2023-04-20T10:38:54.024Z,94515.00
2023-04-20T10:39:54.588Z,94513.00
2023-04-20T10:40:54.333Z,94513.00
2023-04-20T10:41:54.499Z,94513.00
2023-04-20T10:42:54.667Z,94513.00
2023-04-20T10:43:54.308Z,94505.00
2023-04-20T10:44:55.191Z,94509.00
2023-04-20T10:45:55.218Z,94507.00
2023-04-20T10:46:54.714Z,94505.00
2023-04-20T10:47:54.416Z,94507.00
2023-04-20T10:48:54.404Z,94505.00
2023-04-20T10:49:54.593Z,94503.00
2023-04-20T10:50:54.511Z,94503.00
2023-04-20T10:51:54.539Z,94501.00
2023-04-20T10:52:54.568Z,94500.00
2023-04-20T10:53:54.595Z,94498.00
2023-04-20T10:54:55.305Z,94501.00
2023-04-20T10:55:54.690Z,94501.00
2023-04-20T10:56:54.725Z,94496.00
2023-04-20T10:57:54.766Z,94494.00
2023-04-20T10:58:54.811Z,94488.00
2023-04-20T10:59:55.312Z,94490.00
2023-04-20T11:00:55.256Z,94484.00
2023-04-20T11:01:55.323Z,94484.00
2023-04-20T11:02:55.522Z,94484.00
2023-04-20T11:03:55.437Z,94484.00
2023-04-20T11:04:55.620Z,94482.00
2023-04-20T11:05:55.314Z,94482.00
2023-04-20T11:06:55.309Z,94480.00
2023-04-20T11:07:56.130Z,94476.00
2023-04-20T11:08:55.321Z,94480.00
2023-04-20T11:09:55.608Z,94480.00
2023-04-20T11:10:55.311Z,94474.00
2023-04-20T11:11:56.096Z,94476.00
2023-04-20T11:12:55.341Z,94478.00
2023-04-20T11:13:55.384Z,94476.00
2023-04-20T11:14:55.597Z,94476.00
2023-04-20T11:15:55.509Z,94478.00
2023-04-20T11:16:55.581Z,94478.00
2023-04-20T11:17:55.568Z,94476.00
2023-04-20T11:18:55.550Z,94478.00
2023-04-20T11:19:55.743Z,94476.00
2023-04-20T11:20:55.641Z,94476.00
2023-04-20T11:21:56.107Z,94476.00
2023-04-20T11:22:55.713Z,94478.00
2023-04-20T11:23:55.745Z,94474.00
2023-04-20T11:24:55.780Z,94474.00
2023-04-20T11:25:55.841Z,94472.00
2023-04-20T11:26:56.325Z,94472.00
2023-04-20T11:27:56.348Z,94474.00
2023-04-20T11:28:56.673Z,94470.00
2023-04-20T11:29:56.315Z,94472.00
2023-04-20T11:30:56.018Z,94466.00
2023-04-20T11:31:56.223Z,94466.00
2023-04-20T11:32:56.115Z,94464.00
2023-04-20T11:33:56.124Z,94464.00
2023-04-20T11:35:06.042Z,94466.00
2023-04-20T11:35:56.198Z,94464.00
2023-04-20T11:36:56.839Z,94464.00
2023-04-20T11:37:56.149Z,94464.00
2023-04-20T11:38:56.129Z,94464.00
2023-04-20T11:39:56.640Z,94464.00
2023-04-20T11:40:56.117Z,94462.00
2023-04-20T11:41:56.117Z,94462.00
2023-04-20T11:42:56.116Z,94458.00
2023-04-20T11:43:56.123Z,94456.00
2023-04-20T11:44:56.102Z,94454.00
2023-04-20T11:45:56.122Z,94454.00
2023-04-20T11:46:56.088Z,94450.00
2023-04-20T11:47:56.122Z,94450.00
2023-04-20T11:48:56.076Z,94452.00
2023-04-20T11:49:56.126Z,94456.00